createdAt,value
2017-11-22T00:00:34.778Z,13.57
2017-11-22T00:01:34.772Z,12.84
2017-11-22T00:02:34.765Z,11.44
2017-11-22T00:03:34.761Z,12.00
2017-11-22T00:04:34.752Z,13.56
2017-11-22T00:05:34.746Z,12.57
2017-11-22T00:06:34.745Z,14.30
2017-11-22T00:07:34.727Z,12.61
2017-11-22T00:08:35.442Z,13.55
2017-11-22T00:09:34.719Z,15.54
2017-11-22T00:10:35.442Z,12.87
2017-11-22T00:11:34.704Z,12.75
2017-11-22T00:12:34.693Z,12.71
2017-11-22T00:13:34.689Z,13.30
2017-11-22T00:14:34.675Z,14.40
2017-11-22T00:15:34.678Z,14.17
2017-11-22T00:16:34.678Z,13.88
2017-11-22T00:17:34.671Z,12.59
2017-11-22T00:18:34.656Z,11.54
2017-11-22T00:19:34.649Z,11.32
2017-11-22T00:20:34.643Z,13.35
2017-11-22T00:21:34.633Z,15.12
2017-11-22T00:22:34.632Z,13.07
2017-11-22T00:23:34.621Z,13.27
2017-11-22T00:24:34.624Z,13.21
2017-11-22T00:25:34.602Z,12.33
2017-11-22T00:26:34.607Z,14.28
2017-11-22T00:27:34.594Z,12.10
2017-11-22T00:28:34.587Z,13.60
2017-11-22T00:29:34.590Z,12.04
2017-11-22T00:30:34.579Z,12.38
2017-11-22T00:31:34.580Z,11.85
2017-11-22T00:31:47.435Z,0.44
2017-11-22T00:33:34.553Z,14.10
2017-11-22T00:34:34.539Z,13.46
2017-11-22T00:35:35.445Z,11.90
2017-11-22T00:36:34.520Z,12.91
2017-11-22T00:37:35.460Z,10.69
2017-11-22T00:38:34.519Z,12.31
2017-11-22T00:39:34.513Z,11.96
2017-11-22T00:40:34.501Z,12.68
2017-11-22T00:41:34.492Z,11.66
2017-11-22T00:42:35.439Z,12.72
2017-11-22T00:43:34.487Z,12.69
2017-11-22T00:44:34.470Z,11.04
2017-11-22T00:45:34.459Z,12.92
2017-11-22T00:46:34.465Z,13.18
2017-11-22T00:47:34.454Z,14.56
2017-11-22T00:48:34.945Z,14.48
2017-11-22T00:49:34.435Z,14.86
2017-11-22T00:50:34.437Z,13.90
2017-11-22T00:51:34.949Z,10.78
2017-11-22T00:52:34.949Z,10.58
2017-11-22T00:53:34.411Z,10.54
2017-11-22T00:54:34.409Z,13.38
2017-11-22T00:55:34.392Z,11.34
2017-11-22T00:56:34.398Z,11.02
2017-11-22T00:57:34.372Z,11.08
2017-11-22T00:58:34.385Z,10.18
2017-11-22T00:59:34.950Z,10.10
2017-11-22T01:00:34.371Z,10.08
2017-11-22T01:01:34.359Z,11.28
2017-11-22T01:02:34.349Z,11.05
2017-11-22T01:03:34.348Z,10.28
2017-11-22T01:04:34.342Z,11.58
2017-11-22T01:05:34.325Z,12.30
2017-11-22T01:06:34.959Z,10.98
2017-11-22T01:07:34.313Z,12.84
2017-11-22T01:08:34.315Z,10.24
2017-11-22T01:09:34.295Z,11.46
2017-11-22T01:10:34.296Z,11.14
2017-11-22T01:11:34.288Z,9.82
2017-11-22T01:12:34.288Z,11.83
2017-11-22T01:13:34.278Z,11.24
2017-11-22T01:14:34.969Z,10.32
2017-11-22T01:15:34.261Z,11.50
2017-11-22T01:16:34.275Z,13.20
2017-11-22T01:17:34.257Z,11.48
2017-11-22T01:18:34.963Z,11.37
2017-11-22T01:19:34.231Z,10.56
2017-11-22T01:20:34.239Z,10.67
2017-11-22T01:21:34.225Z,11.07
2017-11-22T01:22:34.219Z,12.04
2017-11-22T01:23:34.212Z,13.55
2017-11-22T01:24:36.957Z,13.41
2017-11-22T01:25:34.204Z,12.38
2017-11-22T01:26:34.190Z,11.73
2017-11-22T01:27:34.182Z,11.77
2017-11-22T01:28:34.172Z,12.05
2017-11-22T01:29:34.163Z,10.43
2017-11-22T01:30:34.156Z,11.40
2017-11-22T01:31:34.148Z,11.16
2017-11-22T01:32:34.148Z,12.13
2017-11-22T01:33:34.138Z,12.42
2017-11-22T01:34:34.128Z,11.17
2017-11-22T01:35:34.146Z,9.52
2017-11-22T01:36:34.964Z,15.08
2017-11-22T01:37:34.109Z,10.20
2017-11-22T01:38:34.118Z,11.61
2017-11-22T01:39:34.118Z,12.50
2017-11-22T01:40:34.108Z,12.45
2017-11-22T01:41:34.974Z,11.36
2017-11-22T01:42:34.074Z,14.26
2017-11-22T01:43:34.071Z,12.00
2017-11-22T01:44:34.056Z,12.24
2017-11-22T01:45:34.058Z,13.05
2017-11-22T01:46:34.047Z,14.30
2017-11-22T01:47:40.965Z,12.00
2017-11-22T01:48:34.042Z,11.98
2017-11-22T01:49:34.030Z,13.32
2017-11-22T01:50:34.040Z,12.66
2017-11-22T01:51:34.972Z,12.99
2017-11-22T01:52:34.009Z,11.68
2017-11-22T01:53:34.005Z,9.78
2017-11-22T01:54:34.001Z,10.84
2017-11-22T01:55:34.008Z,12.36
2017-11-22T01:56:36.976Z,11.83
2017-11-22T01:57:33.981Z,10.40
2017-11-22T01:58:33.968Z,9.73
2017-11-22T01:59:33.963Z,9.97
2017-11-22T02:00:33.953Z,11.44
2017-11-22T02:01:33.951Z,12.15
2017-11-22T02:02:33.945Z,10.73
2017-11-22T02:03:33.934Z,14.56
2017-11-22T02:04:33.932Z,14.50
2017-11-22T02:05:33.922Z,11.57
2017-11-22T02:06:33.930Z,11.34
2017-11-22T02:07:33.924Z,11.96
2017-11-22T02:08:33.905Z,11.75
2017-11-22T02:09:33.891Z,10.36
2017-11-22T02:10:33.888Z,13.30
2017-11-22T02:11:36.486Z,11.89
2017-11-22T02:12:33.883Z,12.88
2017-11-22T02:13:33.873Z,12.61
2017-11-22T02:14:33.868Z,10.85
2017-11-22T02:15:33.856Z,11.07
2017-11-22T02:16:33.855Z,15.09
2017-11-22T02:17:33.837Z,11.64
2017-11-22T02:18:33.839Z,11.00
2017-11-22T02:19:33.838Z,11.78
2017-11-22T02:20:33.832Z,12.26
2017-11-22T02:21:33.829Z,12.61
2017-11-22T02:22:33.799Z,12.24
2017-11-22T02:23:33.799Z,11.66
2017-11-22T02:24:33.798Z,12.56
2017-11-22T02:25:33.788Z,11.16
2017-11-22T02:26:33.777Z,10.76
2017-11-22T02:27:34.509Z,11.09
2017-11-22T02:28:33.785Z,15.22
2017-11-22T02:29:33.761Z,14.15
2017-11-22T02:30:33.769Z,16.41
2017-11-22T02:31:33.751Z,15.64
2017-11-22T02:32:33.773Z,13.05
2017-11-22T02:33:34.495Z,15.50
2017-11-22T02:34:33.722Z,13.10
2017-11-22T02:35:34.504Z,12.97
2017-11-22T02:36:33.706Z,12.21
2017-11-22T02:37:33.720Z,10.98
2017-11-22T02:38:33.712Z,12.12
2017-11-22T02:39:33.730Z,14.98
2017-11-22T02:40:33.686Z,13.92
2017-11-22T02:41:33.681Z,12.26
2017-11-22T02:42:33.667Z,12.00
2017-11-22T02:43:33.670Z,14.33
2017-11-22T02:44:33.674Z,11.43
2017-11-22T02:45:34.490Z,14.35
2017-11-22T02:46:33.657Z,12.42
2017-11-22T02:47:33.649Z,13.27
2017-11-22T02:48:33.638Z,12.04
2017-11-22T02:49:34.494Z,11.74
2017-11-22T02:50:33.626Z,12.91
2017-11-22T02:51:33.624Z,14.20
2017-11-22T02:52:33.604Z,12.69
2017-11-22T02:53:33.606Z,13.27
2017-11-22T02:54:33.595Z,12.16
2017-11-22T02:55:33.586Z,12.73
2017-11-22T02:56:33.584Z,13.50
2017-11-22T02:57:33.586Z,15.61
2017-11-22T02:58:33.568Z,14.29
2017-11-22T02:59:33.570Z,14.24
2017-11-22T03:00:33.547Z,15.71
2017-11-22T03:01:33.553Z,19.30
2017-11-22T03:02:33.531Z,16.64
2017-11-22T03:03:33.535Z,17.44
2017-11-22T03:04:34.498Z,15.53
2017-11-22T03:05:33.516Z,14.74
2017-11-22T03:06:33.518Z,13.80
2017-11-22T03:07:33.502Z,13.06
2017-11-22T03:08:33.506Z,11.95
2017-11-22T03:09:33.495Z,16.40
2017-11-22T03:10:33.483Z,19.00
2017-11-22T03:11:33.482Z,15.68
2017-11-22T03:12:34.017Z,23.40
2017-11-22T03:13:33.459Z,24.26
2017-11-22T03:14:33.482Z,18.44
2017-11-22T03:15:33.465Z,20.34
2017-11-22T03:16:33.445Z,18.68
2017-11-22T03:17:33.451Z,25.20
2017-11-22T03:18:33.430Z,19.62
2017-11-22T03:19:33.417Z,20.66
2017-11-22T03:20:33.422Z,15.63
2017-11-22T03:21:33.407Z,16.50
2017-11-22T03:22:33.414Z,19.54
2017-11-22T03:23:33.404Z,14.49
2017-11-22T03:24:33.391Z,16.39
2017-11-22T03:25:33.384Z,17.14
2017-11-22T03:26:34.008Z,20.51
2017-11-22T03:27:34.034Z,28.47
2017-11-22T03:28:33.358Z,28.27
2017-11-22T03:29:33.350Z,19.60
2017-11-22T03:30:33.360Z,17.79
2017-11-22T03:31:33.344Z,17.13
2017-11-22T03:32:33.335Z,17.41
2017-11-22T03:33:33.324Z,17.91
2017-11-22T03:34:34.014Z,18.26
2017-11-22T03:35:33.304Z,16.62
2017-11-22T03:36:33.297Z,15.38
2017-11-22T03:37:33.311Z,19.27
2017-11-22T03:38:33.333Z,19.81
2017-11-22T03:39:48.012Z,16.30
2017-11-22T03:40:38.516Z,18.86
2017-11-22T03:41:38.525Z,20.52
2017-11-22T03:42:45.016Z,20.48
2017-11-22T03:43:38.496Z,22.38
2017-11-22T03:44:41.018Z,18.08
2017-11-22T03:45:38.499Z,16.78
2017-11-22T03:46:38.481Z,16.40
2017-11-22T03:47:38.460Z,17.70
2017-11-22T03:48:39.034Z,19.27
2017-11-22T03:49:39.028Z,16.40
2017-11-22T03:50:38.442Z,14.82
2017-11-22T03:51:38.453Z,17.04
2017-11-22T03:52:38.431Z,20.06
2017-11-22T03:53:39.014Z,16.31
2017-11-22T03:54:45.025Z,16.33
2017-11-22T03:55:38.410Z,16.83
2017-11-22T03:56:38.405Z,17.37
2017-11-22T03:57:41.043Z,18.09
2017-11-22T03:58:38.386Z,19.98
2017-11-22T03:59:39.036Z,19.64
2017-11-22T04:00:39.020Z,23.48
2017-11-22T04:01:38.368Z,20.52
2017-11-22T04:02:39.028Z,22.34
2017-11-22T04:03:38.347Z,18.25
2017-11-22T04:04:41.034Z,16.02
2017-11-22T04:05:38.352Z,18.47
2017-11-22T04:06:38.332Z,18.66
2017-11-22T04:07:39.034Z,17.16
2017-11-22T04:08:38.334Z,17.30
2017-11-22T04:09:39.029Z,16.33
2017-11-22T04:10:41.034Z,19.58
2017-11-22T04:11:38.307Z,16.08
2017-11-22T04:12:39.025Z,19.70
2017-11-22T04:13:41.032Z,18.02
2017-11-22T04:14:39.032Z,15.49
2017-11-22T04:15:38.290Z,13.96
2017-11-22T04:16:38.263Z,13.74
2017-11-22T04:17:38.267Z,16.71
2017-11-22T04:18:39.026Z,14.21
2017-11-22T04:19:38.267Z,16.61
2017-11-22T04:20:38.235Z,19.27
2017-11-22T04:21:38.250Z,18.96
2017-11-22T04:22:39.030Z,18.18
2017-11-22T04:23:38.216Z,15.21
2017-11-22T04:24:38.203Z,14.66
2017-11-22T04:25:38.208Z,14.18
2017-11-22T04:26:38.202Z,15.66
2017-11-22T04:27:38.187Z,16.87
2017-11-22T04:28:38.181Z,17.76
2017-11-22T04:29:38.176Z,13.89
2017-11-22T04:30:38.159Z,15.70
2017-11-22T04:31:38.160Z,19.82
2017-11-22T04:32:38.159Z,16.65
2017-11-22T04:33:38.146Z,16.98
2017-11-22T04:34:38.138Z,20.04
2017-11-22T04:35:38.149Z,19.04
2017-11-22T04:36:38.139Z,19.20
2017-11-22T04:37:38.130Z,16.44
2017-11-22T04:38:38.116Z,17.39
2017-11-22T04:39:39.046Z,15.06
2017-11-22T04:40:38.125Z,12.99
2017-11-22T04:41:38.105Z,15.53
2017-11-22T04:42:39.039Z,13.91
2017-11-22T04:43:38.081Z,12.09
2017-11-22T04:44:38.086Z,13.06
2017-11-22T04:45:38.075Z,13.89
2017-11-22T04:46:38.047Z,15.37
2017-11-22T04:47:39.039Z,14.64
2017-11-22T04:48:38.539Z,14.22
2017-11-22T04:49:38.040Z,13.67
2017-11-22T04:50:38.029Z,16.30
2017-11-22T04:51:38.032Z,14.18
2017-11-22T04:52:38.009Z,14.01
2017-11-22T04:53:38.035Z,16.00
2017-11-22T04:54:38.004Z,19.31
2017-11-22T04:55:37.999Z,15.66
2017-11-22T04:56:37.996Z,14.87
2017-11-22T04:57:38.004Z,15.84
2017-11-22T04:58:37.970Z,14.15
2017-11-22T04:59:37.963Z,14.53
2017-11-22T05:00:37.977Z,15.46
2017-11-22T05:01:37.964Z,16.24
2017-11-22T05:02:37.946Z,16.74
2017-11-22T05:03:37.936Z,16.04
2017-11-22T05:04:37.930Z,15.86
2017-11-22T05:05:37.915Z,15.77
2017-11-22T05:06:37.909Z,16.21
2017-11-22T05:07:37.921Z,16.54
2017-11-22T05:08:37.912Z,14.49
2017-11-22T05:09:37.892Z,15.91
2017-11-22T05:10:37.894Z,16.25
2017-11-22T05:11:37.907Z,13.94
2017-11-22T05:12:37.883Z,17.10
2017-11-22T05:13:37.868Z,12.86
2017-11-22T05:14:37.871Z,13.86
2017-11-22T05:15:37.856Z,13.43
2017-11-22T05:16:37.890Z,14.38
2017-11-22T05:17:40.557Z,12.68
2017-11-22T05:18:40.556Z,12.70
2017-11-22T05:19:37.835Z,13.71
2017-11-22T05:20:37.817Z,14.16
2017-11-22T05:21:38.552Z,12.41
2017-11-22T05:22:37.808Z,14.92
2017-11-22T05:23:37.805Z,14.91
2017-11-22T05:24:38.557Z,12.40
2017-11-22T05:25:37.789Z,14.26
2017-11-22T05:26:40.556Z,13.17
2017-11-22T05:27:37.776Z,17.31
2017-11-22T05:28:37.791Z,12.20
2017-11-22T05:29:37.755Z,13.46
2017-11-22T05:30:37.759Z,13.27
2017-11-22T05:31:38.566Z,13.54
2017-11-22T05:32:40.564Z,12.25
2017-11-22T05:33:37.730Z,13.70
2017-11-22T05:34:37.723Z,12.88
2017-11-22T05:35:37.707Z,13.00
2017-11-22T05:36:37.717Z,13.20
2017-11-22T05:37:37.704Z,16.02
2017-11-22T05:38:37.698Z,14.59
2017-11-22T05:39:38.565Z,13.35
2017-11-22T05:40:37.684Z,14.50
2017-11-22T05:41:37.696Z,13.64
2017-11-22T05:42:37.670Z,13.21
2017-11-22T05:43:38.569Z,15.54
2017-11-22T05:44:37.658Z,12.76
2017-11-22T05:45:37.644Z,12.66
2017-11-22T05:46:37.643Z,12.06
2017-11-22T05:47:37.633Z,15.89
2017-11-22T05:48:37.624Z,14.78
2017-11-22T05:49:37.614Z,13.31
2017-11-22T05:50:37.601Z,14.23
2017-11-22T05:51:37.599Z,15.20
2017-11-22T05:52:38.287Z,16.38
2017-11-22T05:53:37.619Z,14.98
2017-11-22T05:54:37.602Z,14.86
2017-11-22T05:55:37.567Z,17.33
2017-11-22T05:56:37.584Z,14.40
2017-11-22T05:57:37.563Z,13.09
2017-11-22T05:58:38.068Z,12.79
2017-11-22T05:59:37.566Z,14.26
2017-11-22T06:00:37.537Z,14.74
2017-11-22T06:01:37.537Z,12.28
2017-11-22T06:02:37.524Z,14.48
2017-11-22T06:03:37.525Z,15.56
2017-11-22T06:04:37.522Z,13.40
2017-11-22T06:05:38.090Z,13.66
2017-11-22T06:06:37.495Z,14.81
2017-11-22T06:07:37.506Z,14.73
2017-11-22T06:08:38.091Z,16.36
2017-11-22T06:09:37.474Z,13.36
2017-11-22T06:10:37.477Z,12.76
2017-11-22T06:11:37.469Z,13.92
2017-11-22T06:12:37.447Z,13.40
2017-11-22T06:13:37.472Z,14.00
2017-11-22T06:14:37.451Z,13.25
2017-11-22T06:15:37.431Z,13.35
2017-11-22T06:16:37.431Z,11.06
2017-11-22T06:17:37.425Z,15.15
2017-11-22T06:18:37.421Z,15.09
2017-11-22T06:19:37.413Z,15.16
2017-11-22T06:20:37.397Z,15.73
2017-11-22T06:21:37.396Z,14.46
2017-11-22T06:22:37.399Z,13.29
2017-11-22T06:23:37.393Z,15.51
2017-11-22T06:24:37.369Z,17.73
2017-11-22T06:25:37.370Z,15.90
2017-11-22T06:26:37.361Z,13.73
2017-11-22T06:27:37.359Z,13.08
2017-11-22T06:28:37.342Z,15.90
2017-11-22T06:29:37.336Z,16.79
2017-11-22T06:30:37.326Z,12.46
2017-11-22T06:31:37.325Z,14.61
2017-11-22T06:32:37.320Z,14.07
2017-11-22T06:33:37.320Z,16.14
2017-11-22T06:34:37.298Z,18.93
2017-11-22T06:35:37.302Z,14.93
2017-11-22T06:36:37.301Z,12.04
2017-11-22T06:37:37.300Z,15.73
2017-11-22T06:38:37.278Z,13.17
2017-11-22T06:39:37.277Z,15.14
2017-11-22T06:40:37.260Z,12.98
2017-11-22T06:41:37.256Z,12.52
2017-11-22T06:42:37.250Z,15.52
2017-11-22T06:43:37.288Z,13.83
2017-11-22T06:44:38.092Z,17.47
2017-11-22T06:45:37.227Z,17.35
2017-11-22T06:46:37.214Z,16.21
2017-11-22T06:47:37.206Z,16.37
2017-11-22T06:48:37.198Z,15.60
2017-11-22T06:49:37.199Z,17.10
2017-11-22T06:50:37.210Z,14.62
2017-11-22T06:51:37.193Z,15.84
2017-11-22T06:52:37.176Z,13.79
2017-11-22T06:53:37.176Z,19.31
2017-11-22T06:54:37.164Z,17.24
2017-11-22T06:55:37.161Z,14.95
2017-11-22T06:56:37.150Z,16.54
2017-11-22T06:57:37.143Z,18.99
2017-11-22T06:58:37.141Z,16.14
2017-11-22T06:59:37.123Z,16.37
2017-11-22T07:00:37.119Z,19.26
2017-11-22T07:01:37.113Z,19.30
2017-11-22T07:02:37.116Z,16.72
2017-11-22T07:03:37.097Z,16.79
2017-11-22T07:04:37.101Z,15.17
2017-11-22T07:05:37.083Z,15.48
2017-11-22T07:06:37.073Z,19.38
2017-11-22T07:07:37.077Z,16.85
2017-11-22T07:08:37.060Z,19.04
2017-11-22T07:09:37.051Z,18.33
2017-11-22T07:10:37.056Z,16.17
2017-11-22T07:11:37.045Z,17.61
2017-11-22T07:12:37.035Z,18.62
2017-11-22T07:13:37.035Z,17.80
2017-11-22T07:14:37.018Z,19.82
2017-11-22T07:15:37.010Z,19.43
2017-11-22T07:16:37.006Z,17.20
2017-11-22T07:17:37.002Z,18.94
2017-11-22T07:18:36.990Z,18.20
2017-11-22T07:19:36.983Z,16.75
2017-11-22T07:20:36.980Z,19.83
2017-11-22T07:21:36.967Z,17.66
2017-11-22T07:22:36.958Z,17.41
2017-11-22T07:23:36.968Z,16.62
2017-11-22T07:24:36.946Z,19.03
2017-11-22T07:25:36.938Z,17.25
2017-11-22T07:26:36.934Z,17.90
2017-11-22T07:27:36.924Z,17.92
2017-11-22T07:28:36.919Z,17.72
2017-11-22T07:29:36.899Z,16.71
2017-11-22T07:30:36.896Z,21.71
2017-11-22T07:31:36.897Z,21.84
2017-11-22T07:32:36.887Z,17.60
2017-11-22T07:33:36.883Z,20.49
2017-11-22T07:34:36.869Z,19.74
2017-11-22T07:35:36.868Z,18.26
2017-11-22T07:36:36.870Z,17.31
2017-11-22T07:37:36.845Z,19.20
2017-11-22T07:38:36.844Z,21.39
2017-11-22T07:39:36.840Z,16.46
2017-11-22T07:40:36.828Z,17.56
2017-11-22T07:41:36.833Z,18.05
2017-11-22T07:42:36.809Z,16.36
2017-11-22T07:43:36.796Z,18.23
2017-11-22T07:44:36.792Z,19.45
2017-11-22T07:45:36.781Z,18.42
2017-11-22T07:46:36.780Z,17.90
2017-11-22T07:47:36.772Z,19.82
2017-11-22T07:48:36.769Z,17.73
2017-11-22T07:49:36.772Z,19.83
2017-11-22T07:50:36.751Z,20.13
2017-11-22T07:51:36.749Z,22.43
2017-11-22T07:52:36.740Z,18.83
2017-11-22T07:53:37.440Z,17.94
2017-11-22T07:54:36.730Z,21.75
2017-11-22T07:55:36.719Z,19.99
2017-11-22T07:56:36.714Z,18.86
2017-11-22T07:57:36.712Z,16.73
2017-11-22T07:58:36.708Z,19.18
2017-11-22T07:59:36.690Z,18.98
2017-11-22T08:00:36.681Z,17.41
2017-11-22T08:01:36.690Z,17.88
2017-11-22T08:02:37.020Z,19.99
2017-11-22T08:03:36.656Z,18.76
2017-11-22T08:04:36.657Z,21.24
2017-11-22T08:05:36.647Z,18.24
2017-11-22T08:06:36.644Z,18.72
2017-11-22T08:07:36.632Z,17.66
2017-11-22T08:08:36.626Z,18.31
2017-11-22T08:09:36.616Z,19.78
2017-11-22T08:10:36.615Z,25.93
2017-11-22T08:11:36.606Z,30.74
2017-11-22T08:12:36.592Z,27.06
2017-11-22T08:13:36.596Z,27.42
2017-11-22T08:14:36.587Z,24.22
2017-11-22T08:15:36.579Z,24.56
2017-11-22T08:16:36.567Z,33.54
2017-11-22T08:17:36.560Z,29.01
2017-11-22T08:18:36.559Z,22.73
2017-11-22T08:19:36.547Z,25.34
2017-11-22T08:20:36.539Z,24.88
2017-11-22T08:21:36.534Z,25.13
2017-11-22T08:22:36.519Z,23.26
2017-11-22T08:23:36.525Z,22.72
2017-11-22T08:24:36.516Z,21.82
2017-11-22T08:25:36.502Z,18.98
2017-11-22T08:26:36.511Z,23.82
2017-11-22T08:27:36.488Z,24.44
2017-11-22T08:28:36.485Z,25.75
2017-11-22T08:29:36.476Z,24.09
2017-11-22T08:30:36.469Z,28.70
2017-11-22T08:31:36.465Z,43.44
2017-11-22T08:32:36.466Z,41.44
2017-11-22T08:33:36.454Z,36.96
2017-11-22T08:34:36.443Z,37.96
2017-11-22T08:35:36.434Z,33.36
2017-11-22T08:36:36.448Z,28.81
2017-11-22T08:37:36.424Z,26.23
2017-11-22T08:38:36.415Z,24.56
2017-11-22T08:39:36.416Z,24.29
2017-11-22T08:40:36.397Z,20.58
2017-11-22T08:41:36.404Z,20.97
2017-11-22T08:42:36.393Z,22.34
2017-11-22T08:43:36.391Z,22.04
2017-11-22T08:44:36.384Z,22.61
2017-11-22T08:45:36.366Z,21.26
2017-11-22T08:46:36.367Z,23.48
2017-11-22T08:47:36.351Z,22.56
2017-11-22T08:48:36.348Z,21.94
2017-11-22T08:49:36.346Z,23.71
2017-11-22T08:50:36.340Z,18.72
2017-11-22T08:51:36.336Z,16.87
2017-11-22T08:52:36.322Z,21.05
2017-11-22T08:53:36.319Z,23.06
2017-11-22T08:54:36.309Z,20.17
2017-11-22T08:55:36.306Z,18.61
2017-11-22T08:56:36.296Z,17.26
2017-11-22T08:57:36.306Z,17.71
2017-11-22T08:58:36.286Z,20.22
2017-11-22T08:59:36.287Z,25.74
2017-11-22T09:00:36.275Z,32.51
2017-11-22T09:01:36.264Z,23.10
2017-11-22T09:02:36.274Z,20.55
2017-11-22T09:02:48.270Z,0.77
2017-11-22T09:04:36.253Z,20.03
2017-11-22T09:05:36.268Z,17.84
2017-11-22T09:06:36.232Z,20.71
2017-11-22T09:07:36.232Z,20.79
2017-11-22T09:08:36.237Z,18.62
2017-11-22T09:09:36.221Z,17.58
2017-11-22T09:10:36.218Z,15.90
2017-11-22T09:11:36.223Z,18.50
2017-11-22T09:12:36.205Z,18.80
2017-11-22T09:13:36.194Z,19.28
2017-11-22T09:14:36.189Z,21.50
2017-11-22T09:15:36.189Z,18.64
2017-11-22T09:16:36.191Z,19.99
2017-11-22T09:17:36.172Z,19.83
2017-11-22T09:18:36.155Z,18.50
2017-11-22T09:19:36.160Z,21.33
2017-11-22T09:20:36.151Z,23.12
2017-11-22T09:21:36.142Z,19.87
2017-11-22T09:22:36.127Z,18.28
2017-11-22T09:23:36.140Z,18.10
2017-11-22T09:24:36.125Z,19.29
2017-11-22T09:25:36.132Z,18.09
2017-11-22T09:26:36.153Z,16.95
2017-11-22T09:27:36.107Z,17.54
2017-11-22T09:28:36.111Z,15.94
2017-11-22T09:29:36.655Z,17.53
2017-11-22T09:30:36.656Z,17.22
2017-11-22T09:31:36.078Z,18.70
2017-11-22T09:32:36.075Z,18.82
2017-11-22T09:33:36.070Z,18.98
2017-11-22T09:34:36.054Z,19.83
2017-11-22T09:35:36.068Z,18.66
2017-11-22T09:36:36.061Z,17.83
2017-11-22T09:37:36.045Z,16.96
2017-11-22T09:38:36.037Z,18.15
2017-11-22T09:39:36.026Z,18.29
2017-11-22T09:40:36.045Z,17.48
2017-11-22T09:41:36.019Z,18.29
2017-11-22T09:42:36.012Z,17.22
2017-11-22T09:43:36.027Z,17.38
2017-11-22T09:44:36.007Z,15.22
2017-11-22T09:45:35.991Z,14.72
2017-11-22T09:46:35.993Z,15.48
2017-11-22T09:47:35.989Z,16.68
2017-11-22T09:48:35.981Z,15.18
2017-11-22T09:49:35.969Z,15.33
2017-11-22T09:50:35.984Z,17.24
2017-11-22T09:51:35.956Z,16.31
2017-11-22T09:52:35.962Z,14.66
2017-11-22T09:53:35.951Z,18.12
2017-11-22T09:54:35.945Z,16.58
2017-11-22T09:55:35.937Z,17.42
2017-11-22T09:56:35.936Z,16.16
2017-11-22T09:57:35.942Z,14.47
2017-11-22T09:58:35.924Z,13.71
2017-11-22T09:59:35.933Z,13.86
2017-11-22T10:00:35.922Z,15.34
2017-11-22T10:01:35.898Z,15.32
2017-11-22T10:02:35.903Z,13.14
2017-11-22T10:03:35.909Z,12.41
2017-11-22T10:04:35.888Z,12.86
2017-11-22T10:05:35.886Z,13.88
2017-11-22T10:06:35.876Z,16.97
2017-11-22T10:07:35.870Z,16.16
2017-11-22T10:08:35.864Z,15.90
2017-11-22T10:09:35.858Z,14.41
2017-11-22T10:10:35.865Z,13.11
2017-11-22T10:11:35.847Z,15.34
2017-11-22T10:12:35.855Z,15.52
2017-11-22T10:13:35.841Z,14.41
2017-11-22T10:14:35.834Z,14.92
2017-11-22T10:15:35.825Z,13.64
2017-11-22T10:16:35.817Z,14.08
2017-11-22T10:17:35.818Z,14.18
2017-11-22T10:18:35.809Z,15.52
2017-11-22T10:19:35.805Z,16.28
2017-11-22T10:20:35.806Z,17.02
2017-11-22T10:21:35.797Z,16.31
2017-11-22T10:22:35.787Z,11.47
2017-11-22T10:23:35.779Z,13.57
2017-11-22T10:24:35.786Z,16.75
2017-11-22T10:25:35.768Z,13.10
2017-11-22T10:26:35.766Z,12.93
2017-11-22T10:27:35.761Z,16.37
2017-11-22T10:28:35.765Z,14.09
2017-11-22T10:29:35.754Z,15.06
2017-11-22T10:30:35.748Z,12.08
2017-11-22T10:31:35.742Z,14.33
2017-11-22T10:32:36.690Z,15.98
2017-11-22T10:33:35.730Z,14.21
2017-11-22T10:34:35.724Z,13.06
2017-11-22T10:35:35.726Z,12.08
2017-11-22T10:36:35.726Z,13.19
2017-11-22T10:37:35.711Z,13.49
2017-11-22T10:38:35.709Z,12.74
2017-11-22T10:39:35.698Z,12.10
2017-11-22T10:40:35.700Z,12.35
2017-11-22T10:41:35.693Z,12.69
2017-11-22T10:42:36.187Z,12.94
2017-11-22T10:43:35.680Z,12.99
2017-11-22T10:44:35.681Z,12.36
2017-11-22T10:45:35.671Z,13.22
2017-11-22T10:46:35.656Z,12.88
2017-11-22T10:47:36.185Z,15.10
2017-11-22T10:48:35.661Z,15.72
2017-11-22T10:49:35.652Z,13.50
2017-11-22T10:50:35.646Z,12.00
2017-11-22T10:51:35.637Z,10.42
2017-11-22T10:52:35.657Z,11.45
2017-11-22T10:53:36.202Z,14.66
2017-11-22T10:54:35.625Z,15.06
2017-11-22T10:55:35.624Z,12.72
2017-11-22T10:56:35.624Z,11.15
2017-11-22T10:57:35.618Z,11.63
2017-11-22T10:58:35.602Z,14.46
2017-11-22T10:59:35.596Z,12.51
2017-11-22T11:00:35.594Z,10.60
2017-11-22T11:01:35.607Z,12.56
2017-11-22T11:02:35.582Z,11.53
2017-11-22T11:03:35.602Z,10.51
2017-11-22T11:04:35.574Z,12.28
2017-11-22T11:05:35.566Z,10.48
2017-11-22T11:06:35.554Z,11.73
2017-11-22T11:07:35.565Z,13.50
2017-11-22T11:08:35.559Z,12.34
2017-11-22T11:09:35.566Z,9.96
2017-11-22T11:10:35.550Z,14.02
2017-11-22T11:11:35.548Z,12.40
2017-11-22T11:12:36.226Z,11.38
2017-11-22T11:13:35.532Z,9.11
2017-11-22T11:14:35.524Z,11.58
2017-11-22T11:15:35.516Z,11.01
2017-11-22T11:16:35.517Z,10.94
2017-11-22T11:17:35.506Z,10.34
2017-11-22T11:18:35.508Z,10.40
2017-11-22T11:19:35.501Z,12.09
2017-11-22T11:20:35.495Z,11.05
2017-11-22T11:21:35.490Z,11.39
2017-11-22T11:22:35.482Z,12.60
2017-11-22T11:23:35.480Z,12.51
2017-11-22T11:24:35.476Z,11.18
2017-11-22T11:25:35.463Z,11.76
2017-11-22T11:26:35.467Z,11.36
2017-11-22T11:27:35.463Z,9.74
2017-11-22T11:28:35.455Z,9.49
2017-11-22T11:29:35.449Z,11.63
2017-11-22T11:30:35.445Z,10.79
2017-11-22T11:31:35.448Z,10.70
2017-11-22T11:32:35.439Z,11.42
2017-11-22T11:33:35.429Z,9.44
2017-11-22T11:34:35.433Z,10.06
2017-11-22T11:35:35.432Z,10.31
2017-11-22T11:36:35.427Z,9.34
2017-11-22T11:37:35.415Z,10.09
2017-11-22T11:38:35.410Z,11.18
2017-11-22T11:39:35.415Z,10.90
2017-11-22T11:40:35.402Z,9.28
2017-11-22T11:41:35.387Z,9.89
2017-11-22T11:42:35.381Z,9.70
2017-11-22T11:43:35.382Z,10.42
2017-11-22T11:44:35.373Z,11.47
2017-11-22T11:45:35.436Z,11.69
2017-11-22T11:46:35.381Z,9.46
2017-11-22T11:47:35.364Z,9.99
2017-11-22T11:48:35.363Z,11.52
2017-11-22T11:49:35.361Z,10.52
2017-11-22T11:50:35.346Z,10.53
2017-11-22T11:51:35.361Z,10.10
2017-11-22T11:52:35.347Z,10.13
2017-11-22T11:53:35.341Z,12.21
2017-11-22T11:54:35.331Z,11.41
2017-11-22T11:55:35.328Z,10.93
2017-11-22T11:56:35.324Z,10.37
2017-11-22T11:57:35.314Z,11.27
2017-11-22T11:58:35.319Z,9.74
2017-11-22T11:59:35.308Z,10.90
2017-11-22T12:00:35.307Z,10.14
2017-11-22T12:01:35.300Z,10.38
2017-11-22T12:02:35.293Z,9.93
2017-11-22T12:03:35.287Z,10.74
2017-11-22T12:04:35.286Z,10.32
2017-11-22T12:05:35.292Z,10.25
2017-11-22T12:06:36.231Z,10.27
2017-11-22T12:07:35.272Z,10.46
2017-11-22T12:08:35.261Z,10.34
2017-11-22T12:09:36.230Z,10.18
2017-11-22T12:10:36.234Z,10.02
2017-11-22T12:11:35.250Z,9.93
2017-11-22T12:12:35.241Z,10.86
2017-11-22T12:13:35.235Z,9.72
2017-11-22T12:14:35.228Z,9.75
2017-11-22T12:15:35.222Z,11.10
2017-11-22T12:16:35.222Z,10.17
2017-11-22T12:17:35.233Z,8.46
2017-11-22T12:18:35.216Z,10.11
2017-11-22T12:19:35.205Z,9.72
2017-11-22T12:20:35.210Z,11.40
2017-11-22T12:21:35.194Z,10.64
2017-11-22T12:22:35.190Z,10.63
2017-11-22T12:23:35.184Z,9.19
2017-11-22T12:24:35.183Z,11.73
2017-11-22T12:25:35.180Z,12.13
2017-11-22T12:26:35.756Z,10.00
2017-11-22T12:27:35.168Z,8.20
2017-11-22T12:28:35.164Z,9.88
2017-11-22T12:29:35.155Z,8.56
2017-11-22T12:30:35.169Z,8.00
2017-11-22T12:31:35.140Z,10.24
2017-11-22T12:32:35.144Z,10.79
2017-11-22T12:33:35.138Z,8.72
2017-11-22T12:34:35.133Z,9.30
2017-11-22T12:35:35.745Z,9.00
2017-11-22T12:36:35.127Z,8.75
2017-11-22T12:37:35.116Z,10.33
2017-11-22T12:38:35.110Z,11.04
2017-11-22T12:39:35.104Z,8.62
2017-11-22T12:40:35.100Z,11.87
2017-11-22T12:41:35.099Z,15.70
2017-11-22T12:42:35.098Z,14.38
2017-11-22T12:43:35.077Z,15.37
2017-11-22T12:44:35.106Z,19.32
2017-11-22T12:45:35.087Z,16.86
2017-11-22T12:46:35.741Z,17.74
2017-11-22T12:47:35.065Z,17.98
2017-11-22T12:48:35.052Z,16.38
2017-11-22T12:49:35.049Z,15.11
2017-11-22T12:50:35.045Z,16.14
2017-11-22T12:51:35.059Z,15.32
2017-11-22T12:52:35.033Z,17.77
2017-11-22T12:53:35.023Z,13.78